Time;durP1;ratioP1;P1;durP2;ratioP2;P2;SDS_P1;SDS_P2;PMS_P1;PMS_P2;Temp;Humidity;BMP_temperature;BMP_pressure;BME280_temperature;BME280_humidity;BME280_pressure;Samples;Min_cycle;Max_cycle;Signal;HPM_P1;HPM_P2
2024/01/18 00:00:39;;;;;;;;;;;;;;;10.00;46.53;97941.06;4939704;28;98260;-69
2024/01/18 00:03:05;;;;;;;;;;;;;;;10.01;45.86;97953.38;4926570;28;98269;-79
2024/01/18 00:05:31;;;;;;;;;;;;;;;10.01;46.29;97955.28;4944596;28;98091;-69
2024/01/18 00:07:57;;;;;;;;;;;;;;;10.01;45.89;97960.69;4930507;28;100090;-70
2024/01/18 00:10:26;;;;;;;;;;;;;;;10.01;46.45;97957.97;4960849;28;98278;-79
2024/01/18 00:12:52;;;;;;;;;;;;;;;10.00;45.93;97964.50;4928075;28;98260;-77
2024/01/18 00:15:19;;;;;;;;;;;;;;;10.00;45.88;97957.19;4940026;28;124749;-67
2024/01/18 00:17:44;;;;;;;;;;;;;;;10.00;46.50;97965.28;4942243;28;121522;-70
2024/01/18 00:20:11;;;;;;;;;;;;;;;10.00;46.00;97965.28;4939674;28;112239;-79
2024/01/18 00:22:36;;;;;;;;;;;;;;;10.01;46.00;97966.06;4920132;28;98004;-70
2024/01/18 00:25:03;;;;;;;;;;;;;;;10.01;46.49;97961.47;4941138;28;127889;-79
2024/01/18 00:27:28;;;;;;;;;;;;;;;10.01;45.87;97956.06;4923298;28;111232;-79
2024/01/18 00:29:54;;;;;;;;;;;;;;;10.02;45.98;97956.88;4943093;28;103176;-70
2024/01/18 00:32:20;;;;;;;;;;;;;;;10.02;46.18;97964.94;4946722;28;121294;-79
2024/01/18 00:34:46;;;;;;;;;;;;;;;10.02;46.51;97973.00;4948697;28;97939;-79
2024/01/18 00:37:14;;;;;;;;;;;;;;;10.02;45.86;97971.13;4936829;28;98564;-70
2024/01/18 00:39:41;;;;;;;;;;;;;;;10.02;46.14;97978.41;4956464;27;103203;-70
2024/01/18 00:42:07;;;;;;;;;;;;;;;10.03;45.97;97980.00;4928453;28;98243;-79
2024/01/18 00:44:34;;;;;;;;;;;;;;;10.02;45.83;97979.22;4947260;28;99458;-79
2024/01/18 00:47:00;;;;;;;;;;;;;;;10.01;46.51;97983.00;4939074;28;98964;-80
2024/01/18 00:49:26;;;;;;;;;;;;;;;10.02;46.24;97987.28;4924413;28;103869;-79
2024/01/18 00:51:52;;;;;;;;;;;;;;;10.02;46.49;97989.97;4959712;28;121958;-80
2024/01/18 00:54:18;;;;;;;;;;;;;;;10.02;46.44;97992.66;4943530;28;126926;-70
2024/01/18 00:56:44;;;;;;;;;;;;;;;10.02;46.54;98013.38;4945191;28;121313;-80
2024/01/18 00:59:10;;;;;;;;;;;;;;;10.02;46.17;98010.69;4928387;28;134213;-79
2024/01/18 01:01:36;;;;;;;;;;;;;;;10.02;46.11;98008.81;4945193;28;98195;-79
2024/01/18 01:04:02;;;;;;;;;;;;;;;10.01;46.34;98011.81;4941584;28;100142;-70
2024/01/18 01:06:28;;;;;;;;;;;;;;;10.01;46.08;98009.13;4942101;28;115687;-70
2024/01/18 01:08:54;;;;;;;;;;;;;;;10.02;45.99;98024.97;4935940;28;99981;-80
2024/01/18 01:11:20;;;;;;;;;;;;;;;10.03;45.86;98031.13;4922164;28;119119;-79
2024/01/18 01:13:47;;;;;;;;;;;;;;;10.01;46.48;98026.06;4940386;28;117737;-70
2024/01/18 01:16:13;;;;;;;;;;;;;;;10.02;45.94;98033.03;4937808;28;109596;-70
2024/01/18 01:18:39;;;;;;;;;;;;;;;10.03;46.21;98039.22;4926869;28;99358;-70
2024/01/18 01:21:06;;;;;;;;;;;;;;;10.03;45.84;98040.00;4939848;28;121769;-79
2024/01/18 01:23:32;;;;;;;;;;;;;;;10.03;46.32;98045.38;4949793;28;98275;-79
2024/01/18 01:25:59;;;;;;;;;;;;;;;10.03;46.14;98058.06;4936979;28;99496;-69
2024/01/18 01:28:26;;;;;;;;;;;;;;;10.02;46.18;98046.50;4928998;28;97993;-70
2024/01/18 01:30:52;;;;;;;;;;;;;;;10.02;46.38;98057.25;4928241;28;98592;-70
2024/01/18 01:33:18;;;;;;;;;;;;;;;10.03;46.08;98058.06;4942994;28;104357;-79
2024/01/18 01:35:44;;;;;;;;;;;;;;;10.03;46.55;98063.44;4945685;28;127278;-79
2024/01/18 01:38:10;;;;;;;;;;;;;;;10.02;46.21;98067.22;4950140;28;99028;-70
2024/01/18 01:40:36;;;;;;;;;;;;;;;10.03;46.48;98082.28;4944322;28;106980;-79
2024/01/18 01:43:02;;;;;;;;;;;;;;;10.02;46.33;98076.09;4937035;28;98685;-69
2024/01/18 01:45:31;;;;;;;;;;;;;;;10.03;46.25;98084.97;4930321;28;98876;-70
2024/01/18 01:47:57;;;;;;;;;;;;;;;10.02;46.23;98089.56;4931336;28;97877;-70
2024/01/18 01:50:23;;;;;;;;;;;;;;;10.02;46.33;98097.63;4948623;28;98293;-79
2024/01/18 01:52:49;;;;;;;;;;;;;;;10.02;46.24;98104.91;4963287;28;126023;-79
2024/01/18 01:55:15;;;;;;;;;;;;;;;10.02;46.34;98112.97;4960555;28;98184;-69
2024/01/18 01:57:48;;;;;;;;;;;;;;;10.03;46.30;98130.72;4944752;28;99064;-69
2024/01/18 02:00:15;;;;;;;;;;;;;;;10.02;46.15;98127.25;4946487;28;98077;-69
2024/01/18 02:02:41;;;;;;;;;;;;;;;10.02;45.93;98129.94;4930281;28;99709;-68
2024/01/18 02:05:08;;;;;;;;;;;;;;;10.02;46.44;98137.19;4946325;28;98267;-68
2024/01/18 02:07:36;;;;;;;;;;;;;;;10.02;45.87;98140.69;4950461;28;97928;-68
2024/01/18 02:10:05;;;;;;;;;;;;;;;10.01;46.23;98133.72;4947789;28;98135;-76
2024/01/18 02:12:32;;;;;;;;;;;;;;;10.02;46.11;98134.50;4927385;28;97962;-77
2024/01/18 02:14:58;;;;;;;;;;;;;;;10.02;46.52;98140.69;4926617;28;98231;-76
2024/01/18 02:17:24;;;;;;;;;;;;;;;10.02;46.27;98140.69;4931071;28;98331;-76
2024/01/18 02:19:50;;;;;;;;;;;;;;;10.03;46.16;98149.56;4928873;28;114329;-67
2024/01/18 02:22:17;;;;;;;;;;;;;;;10.02;46.52;98156.84;4942382;28;98379;-67
2024/01/18 02:24:49;;;;;;;;;;;;;;;10.01;46.49;98154.47;4947478;28;98047;-67
2024/01/18 02:27:15;;;;;;;;;;;;;;;10.02;46.55;98172.19;4942013;28;117666;-76
2024/01/18 02:29:41;;;;;;;;;;;;;;;10.02;45.99;98172.19;4925635;28;124327;-67
2024/01/18 02:32:07;;;;;;;;;;;;;;;10.01;46.43;98176.00;4925688;28;111050;-67
2024/01/18 02:34:33;;;;;;;;;;;;;;;10.01;46.09;98176.00;4927248;28;100777;-66
2024/01/18 02:36:59;;;;;;;;;;;;;;;10.01;46.10;98184.06;4945385;28;99745;-66
2024/01/18 02:39:25;;;;;;;;;;;;;;;9.98;45.95;98182.00;4942934;28;122468;-66
2024/01/18 02:41:51;;;;;;;;;;;;;;;10.00;46.21;98191.34;4956381;28;98830;-74
2024/01/18 02:44:17;;;;;;;;;;;;;;;10.00;46.05;98196.75;4943585;28;99642;-65
2024/01/18 02:46:43;;;;;;;;;;;;;;;9.99;46.37;98194.38;4953606;28;106228;-74
2024/01/18 02:49:09;;;;;;;;;;;;;;;9.99;46.21;98197.84;4930052;28;122408;-66
2024/01/18 02:51:35;;;;;;;;;;;;;;;9.99;46.22;98189.00;4941241;28;98484;-65
2024/01/18 02:54:01;;;;;;;;;;;;;;;9.99;46.54;98203.25;4927186;28;109292;-66
2024/01/18 02:56:27;;;;;;;;;;;;;;;9.99;46.12;98211.31;4927374;28;119327;-73
2024/01/18 02:58:53;;;;;;;;;;;;;;;9.98;46.31;98208.91;4928393;28;100978;-65
2024/01/18 03:01:19;;;;;;;;;;;;;;;9.97;45.95;98200.06;4946377;28;98274;-73
2024/01/18 03:03:45;;;;;;;;;;;;;;;9.97;46.58;98202.75;4933685;28;128644;-65
2024/01/18 03:06:11;;;;;;;;;;;;;;;9.97;46.27;98197.38;4929281;28;99743;-65
2024/01/18 03:08:37;;;;;;;;;;;;;;;9.97;46.61;98202.75;4951965;28;98075;-73
2024/01/18 03:11:03;;;;;;;;;;;;;;;9.96;46.40;98195.78;4948237;28;127515;-65
2024/01/18 03:13:29;;;;;;;;;;;;;;;9.97;46.64;98204.66;4949679;28;120993;-65
2024/01/18 03:15:55;;;;;;;;;;;;;;;9.96;46.24;98209.25;4931969;28;117671;-65
2024/01/18 03:18:21;;;;;;;;;;;;;;;9.97;46.18;98210.81;4952156;28;97923;-74
2024/01/18 03:20:47;;;;;;;;;;;;;;;9.96;46.25;98209.25;4951184;28;111003;-73
2024/01/18 03:23:13;;;;;;;;;;;;;;;9.97;46.07;98210.81;4933839;28;127160;-65
2024/01/18 03:25:39;;;;;;;;;;;;;;;9.97;46.38;98208.13;4945524;28;97953;-65
2024/01/18 03:28:06;;;;;;;;;;;;;;;9.97;46.26;98213.50;4952398;28;111351;-65
2024/01/18 03:30:32;;;;;;;;;;;;;;;9.97;45.98;98221.59;4954880;28;98381;-74
2024/01/18 03:32:58;;;;;;;;;;;;;;;9.96;46.33;98220.00;4935271;28;130264;-74
2024/01/18 03:35:24;;;;;;;;;;;;;;;9.97;45.99;98223.50;4945218;28;98157;-74
2024/01/18 03:37:50;;;;;;;;;;;;;;;9.97;46.27;98226.19;4926170;28;119337;-65
2024/01/18 03:40:16;;;;;;;;;;;;;;;9.95;46.51;98223.81;4943872;28;125965;-65
2024/01/18 03:42:42;;;;;;;;;;;;;;;9.96;45.92;98230.78;4948633;28;116214;-74
2024/01/18 03:45:08;;;;;;;;;;;;;;;9.96;46.36;98238.06;4946225;28;98263;-65
2024/01/18 03:47:34;;;;;;;;;;;;;;;9.96;46.45;98238.06;4944277;28;98033;-65
2024/01/18 03:50:00;;;;;;;;;;;;;;;9.96;46.32;98246.13;4931162;28;121051;-69
2024/01/18 03:52:26;;;;;;;;;;;;;;;9.95;46.52;98248.03;4947441;28;118875;-74
2024/01/18 03:54:52;;;;;;;;;;;;;;;9.96;46.30;98263.06;4930776;28;98111;-66
2024/01/18 03:57:18;;;;;;;;;;;;;;;9.96;46.43;98264.97;4928672;28;109115;-66
2024/01/18 03:59:47;;;;;;;;;;;;;;;9.96;46.40;98271.16;4929579;28;126780;-66
2024/01/18 04:02:13;;;;;;;;;;;;;;;9.96;46.29;98273.84;4949587;28;98300;-67
2024/01/18 04:04:39;;;;;;;;;;;;;;;9.97;46.26;98271.94;4954523;28;98047;-66
2024/01/18 04:07:06;;;;;;;;;;;;;;;9.97;45.91;98272.72;4947509;28;109435;-66
2024/01/18 04:09:32;;;;;;;;;;;;;;;9.94;46.54;98273.38;4946298;28;98165;-74
2024/01/18 04:11:58;;;;;;;;;;;;;;;9.96;46.25;98278.44;4929549;28;127360;-66
2024/01/18 04:14:25;;;;;;;;;;;;;;;9.96;46.44;98275.75;4932882;28;98415;-66
2024/01/18 04:16:51;;;;;;;;;;;;;;;9.96;46.72;98283.81;4935220;28;98016;-66
2024/01/18 04:19:17;;;;;;;;;;;;;;;9.95;46.35;98285.72;4950973;28;127568;-74
2024/01/18 04:21:43;;;;;;;;;;;;;;;9.95;46.13;98293.78;4933604;28;99361;-66
2024/01/18 04:24:10;;;;;;;;;;;;;;;9.97;46.26;98306.94;4951398;28;98049;-66
2024/01/18 04:26:36;;;;;;;;;;;;;;;9.96;46.28;98313.41;4949837;28;99575;-74
2024/01/18 04:29:02;;;;;;;;;;;;;;;9.96;46.25;98324.97;4934161;28;98050;-74
2024/01/18 04:31:28;;;;;;;;;;;;;;;9.96;46.29;98321.50;4936017;28;128002;-74
2024/01/18 04:33:56;;;;;;;;;;;;;;;9.95;46.53;98318.00;4945621;28;98996;-66
2024/01/18 04:36:22;;;;;;;;;;;;;;;9.96;46.31;98326.88;4968753;28;97994;-74
2024/01/18 04:38:48;;;;;;;;;;;;;;;9.95;46.09;98326.09;4943432;28;131154;-74
2024/01/18 04:41:15;;;;;;;;;;;;;;;9.96;46.29;98330.34;4929467;28;120382;-66
2024/01/18 04:43:41;;;;;;;;;;;;;;;9.95;46.23;98325.31;4950640;28;98739;-75
2024/01/18 04:46:09;;;;;;;;;;;;;;;9.95;46.38;98331.47;4935735;28;103837;-67
2024/01/18 04:48:36;;;;;;;;;;;;;;;9.96;45.90;98335.75;4945480;28;98180;-76
2024/01/18 04:51:03;;;;;;;;;;;;;;;9.95;46.29;98331.47;4930093;28;98173;-76
2024/01/18 04:53:29;;;;;;;;;;;;;;;9.95;46.45;98331.47;4928128;28;98253;-67
2024/01/18 04:55:55;;;;;;;;;;;;;;;9.95;46.29;98325.31;4950213;28;112740;-67
2024/01/18 04:58:21;;;;;;;;;;;;;;;9.94;45.90;98321.81;4940995;28;128742;-67
2024/01/18 05:00:47;;;;;;;;;;;;;;;9.94;46.07;98319.13;4930524;28;98192;-76
2024/01/18 05:03:13;;;;;;;;;;;;;;;9.94;46.21;98321.81;4944930;28;127687;-76
2024/01/18 05:05:41;;;;;;;;;;;;;;;9.95;46.61;98328.00;4947617;28;98349;-67
2024/01/18 05:08:08;;;;;;;;;;;;;;;9.94;46.52;98316.44;4951125;28;97900;-67
2024/01/18 05:10:34;;;;;;;;;;;;;;;9.95;46.55;98301.06;4931694;28;98097;-67
2024/01/18 05:13:00;;;;;;;;;;;;;;;9.95;46.57;98298.38;4950579;28;112353;-76
2024/01/18 05:15:26;;;;;;;;;;;;;;;9.94;46.15;98302.97;4954045;28;121400;-67
2024/01/18 05:17:54;;;;;;;;;;;;;;;9.95;46.22;98301.06;4947375;28;108589;-67
2024/01/18 05:20:20;;;;;;;;;;;;;;;9.95;45.90;98303.78;4948665;28;98238;-67
2024/01/18 05:22:46;;;;;;;;;;;;;;;9.95;45.96;98315.31;4966290;28;99277;-67
2024/01/18 05:25:13;;;;;;;;;;;;;;;9.94;46.09;98337.97;4944444;28;111552;-67
2024/01/18 05:27:40;;;;;;;;;;;;;;;9.93;46.39;98341.75;4933690;28;98514;-66
2024/01/18 05:30:07;;;;;;;;;;;;;;;9.93;46.24;98354.41;4927812;28;99149;-67
2024/01/18 05:32:33;;;;;;;;;;;;;;;9.91;46.02;98351.25;4951373;28;98343;-75
2024/01/18 05:35:01;;;;;;;;;;;;;;;9.91;46.37;98353.94;4928103;28;107638;-67
2024/01/18 05:37:27;;;;;;;;;;;;;;;9.90;46.17;98366.59;4942458;28;98689;-75
2024/01/18 05:39:53;;;;;;;;;;;;;;;9.90;46.56;98368.50;4939758;28;104909;-67
2024/01/18 05:42:19;;;;;;;;;;;;;;;9.89;45.96;98391.91;4923119;28;98289;-66
2024/01/18 05:44:48;;;;;;;;;;;;;;;9.89;46.57;98389.22;4940990;28;119925;-74
2024/01/18 05:47:14;;;;;;;;;;;;;;;9.89;46.17;98394.63;4958732;28;98549;-66
2024/01/18 05:49:40;;;;;;;;;;;;;;;9.89;46.56;98383.84;4928955;28;111030;-66
2024/01/18 05:52:07;;;;;;;;;;;;;;;9.88;46.42;98379.56;4944695;28;126674;-66
2024/01/18 05:54:35;;;;;;;;;;;;;;;9.89;46.43;98380.38;4924878;28;98126;-74
2024/01/18 05:57:02;;;;;;;;;;;;;;;9.88;46.43;98384.97;4941696;28;98836;-74
2024/01/18 05:59:28;;;;;;;;;;;;;;;9.88;45.94;98392.25;4958813;28;98397;-66
2024/01/18 06:01:54;;;;;;;;;;;;;;;9.88;46.06;98403.78;4942213;28;123710;-66
2024/01/18 06:04:20;;;;;;;;;;;;;;;9.87;46.36;98421.06;4935789;28;104495;-66
2024/01/18 06:06:46;;;;;;;;;;;;;;;9.88;46.21;98413.78;4926357;28;100202;-73
2024/01/18 06:09:14;;;;;;;;;;;;;;;9.87;46.34;98402.22;4923669;28;129760;-67
2024/01/18 06:11:40;;;;;;;;;;;;;;;9.87;46.17;98399.53;4943338;28;98621;-66
2024/01/18 06:14:06;;;;;;;;;;;;;;;9.87;46.33;98394.16;4944272;28;98087;-72
2024/01/18 06:16:32;;;;;;;;;;;;;;;9.87;46.05;98401.44;4925674;28;100212;-64
2024/01/18 06:18:58;;;;;;;;;;;;;;;9.87;46.36;98401.44;4942614;28;98879;-71
2024/01/18 06:21:24;;;;;;;;;;;;;;;9.87;46.54;98401.44;4939016;28;116606;-64
2024/01/18 06:23:50;;;;;;;;;;;;;;;9.88;46.26;98409.19;4924019;28;122307;-65
2024/01/18 06:26:16;;;;;;;;;;;;;;;9.87;46.10;98404.13;4928156;28;99479;-64
2024/01/18 06:28:42;;;;;;;;;;;;;;;9.87;46.14;98407.59;4933735;28;98614;-73
2024/01/18 06:31:08;;;;;;;;;;;;;;;9.88;46.36;98414.56;4928115;28;128128;-73
2024/01/18 06:33:34;;;;;;;;;;;;;;;9.88;46.27;98416.47;4944725;28;98233;-65
2024/01/18 06:36:01;;;;;;;;;;;;;;;9.87;46.37;98423.75;4947598;28;127767;-65
2024/01/18 06:38:27;;;;;;;;;;;;;;;9.88;45.95;98435.31;4951036;28;109442;-65
2024/01/18 06:40:54;;;;;;;;;;;;;;;9.87;46.59;98431.03;4931613;28;98081;-72
2024/01/18 06:43:20;;;;;;;;;;;;;;;9.87;46.41;98437.19;4960936;28;98000;-73
2024/01/18 06:45:46;;;;;;;;;;;;;;;9.87;46.57;98442.59;4928275;28;99160;-72
2024/01/18 06:48:11;;;;;;;;;;;;;;;9.88;45.89;98438.00;4943939;28;98358;-65
2024/01/18 06:50:38;;;;;;;;;;;;;;;9.88;46.57;98433.41;4959621;28;98481;-65
2024/01/18 06:53:04;;;;;;;;;;;;;;;9.88;46.27;98429.91;4932056;28;98269;-65
2024/01/18 06:55:30;;;;;;;;;;;;;;;9.89;45.94;98437.66;4947407;28;99881;-66
2024/01/18 06:57:58;;;;;;;;;;;;;;;9.89;46.05;98418.03;4959334;28;111223;-72
2024/01/18 07:00:24;;;;;;;;;;;;;;;9.89;45.95;98432.28;4931600;28;99351;-65
2024/01/18 07:02:50;;;;;;;;;;;;;;;9.89;46.18;98436.88;4947755;28;98130;-72
2024/01/18 07:05:17;;;;;;;;;;;;;;;9.89;46.51;98439.56;4965629;28;98092;-65
2024/01/18 07:07:43;;;;;;;;;;;;;;;9.89;46.32;98451.13;4927574;28;98203;-65
2024/01/18 07:10:09;;;;;;;;;;;;;;;9.90;46.59;98454.59;4930244;28;120309;-65
2024/01/18 07:12:35;;;;;;;;;;;;;;;9.90;46.29;98460.00;4945982;28;103311;-73
2024/01/18 07:15:01;;;;;;;;;;;;;;;9.91;46.21;98458.91;4929103;28;98387;-66
2024/01/18 07:17:27;;;;;;;;;;;;;;;9.91;46.58;98462.38;4949226;28;98505;-73
2024/01/18 07:19:56;;;;;;;;;;;;;;;9.91;46.50;98461.59;4944847;28;98405;-65
2024/01/18 07:22:22;;;;;;;;;;;;;;;9.91;46.09;98462.38;4928842;28;98591;-73
2024/01/18 07:24:49;;;;;;;;;;;;;;;9.92;46.58;98476.63;4960231;28;97964;-65
2024/01/18 07:27:15;;;;;;;;;;;;;;;9.92;46.16;98477.44;4924338;28;98156;-65
2024/01/18 07:29:41;;;;;;;;;;;;;;;9.93;46.40;98475.53;4935771;28;119670;-73
2024/01/18 07:32:07;;;;;;;;;;;;;;;9.94;46.30;98472.53;4959749;28;111400;-65
2024/01/18 07:34:34;;;;;;;;;;;;;;;9.95;46.52;98462.56;4932794;28;99626;-65
2024/01/18 07:37:00;;;;;;;;;;;;;;;9.96;46.27;98464.13;4949427;28;115633;-72
2024/01/18 07:39:27;;;;;;;;;;;;;;;9.98;46.07;98467.31;4954350;28;109162;-72
2024/01/18 07:41:53;;;;;;;;;;;;;;;10.00;45.85;98465.09;4945176;28;98495;-74
2024/01/18 07:44:19;;;;;;;;;;;;;;;10.01;46.07;98472.84;4927993;28;119178;-73
2024/01/18 07:46:45;;;;;;;;;;;;;;;10.03;45.76;98473.34;4966596;28;108641;-71
2024/01/18 07:49:11;;;;;;;;;;;;;;;10.05;46.45;98473.03;4947750;28;119631;-65
2024/01/18 07:51:37;;;;;;;;;;;;;;;10.06;46.09;98469.22;4933179;28;99686;-73
2024/01/18 07:54:04;;;;;;;;;;;;;;;10.07;46.04;98471.63;4938630;28;118240;-65
2024/01/18 07:56:30;;;;;;;;;;;;;;;10.08;46.50;98480.50;4948139;28;98259;-73
2024/01/18 07:58:56;;;;;;;;;;;;;;;10.08;46.11;98485.88;4932793;28;98089;-73
2024/01/18 08:01:22;;;;;;;;;;;;;;;10.11;46.04;98477.19;4951221;28;98301;-65
2024/01/18 08:03:48;;;;;;;;;;;;;;;10.14;45.74;98473.06;4934815;28;99641;-65
2024/01/18 08:06:14;;;;;;;;;;;;;;;10.18;45.84;98479.41;4952353;28;98425;-74
2024/01/18 08:08:43;;;;;;;;;;;;;;;10.21;45.87;98493.03;4937499;28;98094;-74
2024/01/18 08:11:10;;;;;;;;;;;;;;;10.26;46.16;98492.16;4948730;28;98009;-65
2024/01/18 08:13:36;;;;;;;;;;;;;;;10.27;46.07;98485.66;4948234;28;98645;-66
2024/01/18 08:16:02;;;;;;;;;;;;;;;10.28;46.28;98481.84;4940256;28;98125;-74
2024/01/18 08:18:29;;;;;;;;;;;;;;;10.29;46.07;98486.91;4953299;28;98008;-66
2024/01/18 08:20:55;;;;;;;;;;;;;;;10.30;46.04;98482.34;4938610;28;98079;-73
2024/01/18 08:23:23;;;;;;;;;;;;;;;10.34;46.00;98498.66;4935209;28;98024;-74
2024/01/18 08:25:49;;;;;;;;;;;;;;;10.36;45.86;98480.28;4950922;28;111393;-74
2024/01/18 08:28:17;;;;;;;;;;;;;;;10.38;45.88;98489.66;4948484;28;98179;-66
2024/01/18 08:30:44;;;;;;;;;;;;;;;10.43;45.91;98494.88;4935790;28;98595;-66
2024/01/18 08:33:11;;;;;;;;;;;;;;;10.47;45.75;98492.34;4935253;28;98175;-66
2024/01/18 08:35:37;;;;;;;;;;;;;;;10.46;45.80;98488.09;4947384;28;98560;-66
2024/01/18 08:38:04;;;;;;;;;;;;;;;10.47;45.65;98486.97;4930242;28;98204;-66
2024/01/18 08:40:30;;;;;;;;;;;;;;;10.50;46.25;98489.03;4950265;28;98698;-67
2024/01/18 08:42:56;;;;;;;;;;;;;;;10.52;45.91;98486.81;4933286;28;99545;-66
2024/01/18 08:45:23;;;;;;;;;;;;;;;10.54;45.92;98495.38;4933444;28;99633;-75
2024/01/18 08:47:50;;;;;;;;;;;;;;;10.54;46.20;98506.16;4966310;28;122696;-66
2024/01/18 08:50:16;;;;;;;;;;;;;;;10.55;46.06;98492.38;4930418;28;103198;-75
2024/01/18 08:52:42;;;;;;;;;;;;;;;10.59;45.92;98492.53;4927698;28;97912;-66
2024/01/18 08:55:09;;;;;;;;;;;;;;;10.59;45.88;98487.16;4946460;28;97994;-66
2024/01/18 08:57:35;;;;;;;;;;;;;;;10.60;45.93;98506.78;4932932;28;98946;-66
2024/01/18 09:00:01;;;;;;;;;;;;;;;10.59;45.83;98503.31;4935332;28;98278;-66
2024/01/18 09:02:27;;;;;;;;;;;;;;;10.61;45.92;98513.75;4929945;28;98456;-73
2024/01/18 09:04:53;;;;;;;;;;;;;;;10.61;46.28;98530.75;4934422;28;99240;-65
2024/01/18 09:07:19;;;;;;;;;;;;;;;10.61;45.88;98548.78;4934231;28;130309;-72
2024/01/18 09:09:45;;;;;;;;;;;;;;;10.61;46.32;98556.88;4928327;28;107214;-72
2024/01/18 09:12:12;;;;;;;;;;;;;;;10.60;46.09;98553.38;4942895;28;130214;-65
2024/01/18 09:14:38;;;;;;;;;;;;;;;10.61;46.22;98562.25;4940182;28;99906;-65
2024/01/18 09:17:04;;;;;;;;;;;;;;;10.61;45.95;98567.66;4928359;28;106782;-64
2024/01/18 09:19:32;;;;;;;;;;;;;;;10.61;45.99;98573.84;4947236;28;98092;-65
2024/01/18 09:21:59;;;;;;;;;;;;;;;10.59;46.15;98589.53;4927151;28;99507;-72
2024/01/18 09:24:25;;;;;;;;;;;;;;;10.58;45.82;98590.63;4928037;28;99497;-65
2024/01/18 09:26:51;;;;;;;;;;;;;;;10.54;46.13;98590.47;4932933;28;97943;-72
2024/01/18 09:29:16;;;;;;;;;;;;;;;10.52;46.37;98595.34;4935084;28;98395;-65
2024/01/18 09:31:42;;;;;;;;;;;;;;;10.52;46.10;98602.66;4932142;28;129041;-72
2024/01/18 09:34:10;;;;;;;;;;;;;;;10.49;46.32;98606.78;4925755;28;127971;-72
2024/01/18 09:36:37;;;;;;;;;;;;;;;10.48;46.14;98605.16;4929962;28;99822;-73
2024/01/18 09:39:07;;;;;;;;;;;;;;;10.50;46.12;98615.66;4933385;28;98433;-73
2024/01/18 09:41:34;;;;;;;;;;;;;;;10.50;45.85;98612.97;4929737;28;98775;-66
2024/01/18 09:44:05;;;;;;;;;;;;;;;10.52;46.10;98616.13;4947133;28;100373;-65
2024/01/18 09:46:32;;;;;;;;;;;;;;;10.53;45.82;98615.81;4952247;28;97836;-72
2024/01/18 09:48:58;;;;;;;;;;;;;;;10.55;46.07;98618.19;4943280;28;120962;-73
2024/01/18 09:51:24;;;;;;;;;;;;;;;10.57;45.88;98615.97;4931539;28;131088;-72
2024/01/18 09:53:54;;;;;;;;;;;;;;;10.59;45.81;98619.16;4928821;28;125944;-73
2024/01/18 09:56:24;;;;;;;;;;;;;;;10.62;45.67;98623.94;4964576;28;98184;-73
2024/01/18 09:58:51;;;;;;;;;;;;;;;10.64;45.86;98637.88;4952839;28;98147;-73
2024/01/18 10:01:20;;;;;;;;;;;;;;;10.66;45.79;98638.38;4929718;28;98344;-66
2024/01/18 10:03:48;;;;;;;;;;;;;;;10.67;45.94;98631.88;4932248;28;99921;-66
2024/01/18 10:06:14;;;;;;;;;;;;;;;10.70;45.97;98633.94;4948814;28;98124;-66
2024/01/18 10:08:40;;;;;;;;;;;;;;;10.73;46.00;98640.63;4948711;28;102462;-65
2024/01/18 10:11:06;;;;;;;;;;;;;;;10.75;45.82;98638.41;4949429;28;98829;-66
2024/01/18 10:13:55;;;;;;;;;;;;;;;10.79;45.89;98642.84;4932858;28;127704;-65
2024/01/18 10:16:27;;;;;;;;;;;;;;;10.83;45.73;98640.31;4961141;28;98467;-74
2024/01/18 10:18:53;;;;;;;;;;;;;;;10.87;46.01;98645.88;4952278;28;98063;-73
2024/01/18 10:21:22;;;;;;;;;;;;;;;10.91;45.81;98647.63;4932670;28;98013;-66
2024/01/18 10:23:48;;;;;;;;;;;;;;;10.92;45.61;98646.53;4935146;28;98145;-65
2024/01/18 10:26:15;;;;;;;;;;;;;;;10.95;45.82;98648.59;4932007;28;98897;-74
2024/01/18 10:28:41;;;;;;;;;;;;;;;11.00;45.93;98642.25;4949746;28;98018;-66
2024/01/18 10:31:08;;;;;;;;;;;;;;;11.03;45.56;98645.13;4935102;28;98290;-74
2024/01/18 10:33:34;;;;;;;;;;;;;;;11.06;45.96;98652.59;4927874;28;118202;-74
2024/01/18 10:36:01;;;;;;;;;;;;;;;11.07;45.69;98659.56;4944739;28;114756;-75
2024/01/18 10:38:30;;;;;;;;;;;;;;;11.10;45.86;98662.75;4951239;28;105416;-74
2024/01/18 10:40:59;;;;;;;;;;;;;;;11.11;45.91;98665.13;4947044;28;115310;-66
2024/01/18 10:43:32;;;;;;;;;;;;;;;11.14;45.92;98663.72;4966801;28;98727;-66
2024/01/18 10:45:58;;;;;;;;;;;;;;;11.16;45.64;98658.78;4934995;28;98006;-74
2024/01/18 10:48:25;;;;;;;;;;;;;;;11.16;45.35;98659.63;4932582;28;98009;-66
2024/01/18 10:50:53;;;;;;;;;;;;;;;11.15;45.81;98657.22;4960649;28;99548;-67
2024/01/18 10:53:20;;;;;;;;;;;;;;;11.15;45.90;98663.41;4928969;28;98338;-67
2024/01/18 10:55:46;;;;;;;;;;;;;;;11.15;46.00;98660.69;4945414;28;98016;-76
2024/01/18 10:58:12;;;;;;;;;;;;;;;11.15;45.67;98671.47;4944277;28;97856;-76
2024/01/18 11:00:38;;;;;;;;;;;;;;;11.13;45.89;98664.84;4940780;28;98223;-76
2024/01/18 11:03:04;;;;;;;;;;;;;;;11.14;45.96;98663.72;4933338;28;98255;-75
2024/01/18 11:05:30;;;;;;;;;;;;;;;11.13;45.92;98668.31;4927556;28;99251;-67
2024/01/18 11:07:57;;;;;;;;;;;;;;;11.12;45.82;98668.63;4929794;28;98221;-77
2024/01/18 11:10:23;;;;;;;;;;;;;;;11.12;45.94;98679.41;4946149;28;99445;-67
2024/01/18 11:12:49;;;;;;;;;;;;;;;11.12;45.91;98669.44;4930496;28;98133;-67
2024/01/18 11:15:15;;;;;;;;;;;;;;;11.10;45.78;98666.25;4944950;28;98057;-75
2024/01/18 11:17:51;;;;;;;;;;;;;;;11.10;45.98;98671.63;4926206;28;106064;-67
2024/01/18 11:20:17;;;;;;;;;;;;;;;11.11;45.88;98677.81;4949618;28;98941;-67
2024/01/18 11:22:45;;;;;;;;;;;;;;;11.09;45.71;98678.16;4945090;28;98112;-75
2024/01/18 11:25:12;;;;;;;;;;;;;;;11.09;45.92;98672.75;4948890;28;98419;-67
2024/01/18 11:27:41;;;;;;;;;;;;;;;11.10;45.64;98665.47;4946867;28;98236;-74
2024/01/18 11:30:35;;;;;;;;;;;;;;;11.11;45.93;98675.13;4947646;28;97989;-76
2024/01/18 11:33:02;;;;;;;;;;;;;;;11.10;45.91;98678.94;4966065;28;98607;-66
2024/01/18 11:35:27;;;;;;;;;;;;;;;11.10;46.06;98673.53;4946479;28;98300;-76
2024/01/18 11:38:29;;;;;;;;;;;;;;;11.08;46.10;98663.06;4950220;28;98285;-67
2024/01/18 11:41:08;;;;;;;;;;;;;;;11.10;45.76;98654.66;4962612;28;98305;-67
2024/01/18 11:43:55;;;;;;;;;;;;;;;11.09;45.94;98663.88;4947233;28;98275;-75
2024/01/18 11:46:41;;;;;;;;;;;;;;;11.10;45.90;98663.56;4930035;28;98420;-67
2024/01/18 11:49:07;;;;;;;;;;;;;;;11.12;45.96;98669.44;4929132;28;98206;-66
2024/01/18 11:51:34;;;;;;;;;;;;;;;11.11;45.92;98658.94;4931688;28;98120;-75
2024/01/18 11:54:01;;;;;;;;;;;;;;;11.11;45.79;98667.03;4926825;28;97990;-66
2024/01/18 11:56:28;;;;;;;;;;;;;;;11.10;45.87;98666.25;4957972;28;98143;-75
2024/01/18 11:58:57;;;;;;;;;;;;;;;11.11;45.93;98673.22;4933149;28;98375;-66
2024/01/18 12:01:23;;;;;;;;;;;;;;;11.12;45.90;98663.22;4965529;28;104018;-75
2024/01/18 12:03:49;;;;;;;;;;;;;;;11.13;45.92;98670.22;4928927;28;98004;-66
2024/01/18 12:06:16;;;;;;;;;;;;;;;11.14;45.90;98674.50;4936122;28;123201;-71
2024/01/18 12:08:43;;;;;;;;;;;;;;;11.17;46.02;98677.38;4941981;28;98083;-74
2024/01/18 12:11:09;;;;;;;;;;;;;;;11.26;45.92;98688.97;4932139;28;120196;-74
2024/01/18 12:13:38;;;;;;;;;;;;;;;11.35;45.71;98690.88;4929105;28;98174;-73
2024/01/18 12:16:04;;;;;;;;;;;;;;;11.43;45.91;98687.41;4939035;28;98239;-66
2024/01/18 12:18:40;;;;;;;;;;;;;;;11.49;45.98;98686.94;4930386;28;109412;-73
2024/01/18 12:21:06;;;;;;;;;;;;;;;11.56;46.15;98689.19;4948732;28;98603;-72
2024/01/18 12:23:32;;;;;;;;;;;;;;;11.58;45.95;98696.94;4929040;28;129502;-65
2024/01/18 12:25:58;;;;;;;;;;;;;;;11.58;46.12;98700.44;4932446;28;126740;-65
2024/01/18 12:28:25;;;;;;;;;;;;;;;11.59;45.99;98702.03;4940509;28;98241;-66
2024/01/18 12:30:51;;;;;;;;;;;;;;;11.61;46.12;98699.81;4930589;28;98160;-72
2024/01/18 12:33:17;;;;;;;;;;;;;;;11.63;46.10;98702.19;4944702;28;98722;-66
2024/01/18 12:35:46;;;;;;;;;;;;;;;11.62;46.05;98697.91;4957979;28;98352;-66
2024/01/18 12:38:12;;;;;;;;;;;;;;;11.62;46.02;98704.09;4942298;28;98132;-66
2024/01/18 12:40:37;;;;;;;;;;;;;;;11.62;46.24;98708.69;4928113;28;127968;-74
2024/01/18 12:43:03;;;;;;;;;;;;;;;11.63;46.00;98727.28;4951681;28;109368;-74
2024/01/18 12:45:32;;;;;;;;;;;;;;;11.62;46.09;98722.97;4933725;28;97998;-74